createdAt,value
2019-01-31T00:01:07.237Z,999.84
2019-01-31T00:06:06.894Z,999.9
2019-01-31T00:11:07.143Z,999.93
2019-01-31T00:16:05.953Z,999.95
2019-01-31T00:21:06.889Z,999.97
2019-01-31T00:25:06.910Z,999.86
2019-01-31T00:30:08.341Z,999.91
2019-01-31T00:35:07.281Z,1000.02
2019-01-31T00:40:06.718Z,999.97
2019-01-31T00:45:09.086Z,1000
2019-01-31T00:50:06.696Z,1000.05
2019-01-31T00:54:07.162Z,1000.09
2019-01-31T00:59:06.805Z,1000.1
2019-01-31T01:04:07.453Z,1000.15
2019-01-31T01:09:08.769Z,1000.19
2019-01-31T01:14:07.461Z,1000.18
2019-01-31T01:18:05.911Z,1000.22
2019-01-31T01:23:06.997Z,1000.25
2019-01-31T01:27:07.757Z,1000.21
2019-01-31T01:31:06.071Z,1000.27
2019-01-31T01:36:06.973Z,1000.31
2019-01-31T01:41:06.881Z,1000.27
2019-01-31T01:46:06.686Z,1000.28
2019-01-31T01:51:06.232Z,1000.38
2019-01-31T01:56:07.187Z,1000.34
2019-01-31T02:00:09.148Z,1000.3
2019-01-31T02:01:06.722Z,1000.3
2019-01-31T02:05:10.676Z,1000.31
2019-01-31T02:10:07.665Z,1000.37
2019-01-31T02:15:08.662Z,1000.36
2019-01-31T02:20:06.953Z,1000.27
2019-01-31T02:24:06.712Z,1000.36
2019-01-31T02:29:06.735Z,1000.34
2019-01-31T02:34:06.364Z,1000.44
2019-01-31T02:38:07.873Z,1000.34
2019-01-31T02:43:07.345Z,1000.33
2019-01-31T02:48:07.042Z,1000.4
2019-01-31T02:52:07.239Z,1000.4
2019-01-31T02:57:06.952Z,1000.52
2019-01-31T03:01:07.575Z,1000.5
2019-01-31T03:06:06.312Z,1000.55
2019-01-31T03:10:07.089Z,1000.54
2019-01-31T03:15:08.161Z,1000.51
2019-01-31T03:19:06.310Z,1000.56
2019-01-31T03:24:07.396Z,1000.53
2019-01-31T03:28:06.996Z,1000.59
2019-01-31T03:33:07.181Z,1000.57
2019-01-31T03:37:06.724Z,1000.67
2019-01-31T03:42:06.210Z,1000.66
2019-01-31T03:46:06.921Z,1000.69
2019-01-31T03:50:07.046Z,1000.58
2019-01-31T03:55:07.562Z,1000.59
2019-01-31T03:59:07.068Z,1000.68
2019-01-31T04:03:07.113Z,1000.66
2019-01-31T04:07:06.713Z,1000.67
2019-01-31T04:11:06.580Z,1000.67
2019-01-31T04:15:09.118Z,1000.74
2019-01-31T04:16:06.666Z,1000.74
2019-01-31T04:20:07.195Z,1000.66
2019-01-31T04:24:06.614Z,1000.74
2019-01-31T04:28:07.157Z,1000.74
2019-01-31T04:33:06.713Z,1000.79
2019-01-31T04:37:07.158Z,1000.84
2019-01-31T04:41:07.123Z,1000.84
2019-01-31T04:45:08.044Z,1000.88
2019-01-31T04:49:07.107Z,1000.84
2019-01-31T04:53:06.618Z,1000.84
2019-01-31T04:58:06.460Z,1000.8
2019-01-31T05:02:07.472Z,1000.87
2019-01-31T05:06:06.934Z,1000.87
2019-01-31T05:10:06.962Z,1000.99
2019-01-31T05:14:07.464Z,1001.06
2019-01-31T05:18:07.616Z,1001.06
2019-01-31T05:22:07.240Z,1001.09
2019-01-31T05:26:06.009Z,1001.03
2019-01-31T05:30:08.456Z,1001.07
2019-01-31T05:34:07.529Z,1001.12
2019-01-31T05:38:06.623Z,1001.18
2019-01-31T05:42:06.909Z,1001.17
2019-01-31T05:46:06.777Z,1001.19
2019-01-31T05:50:07.367Z,1001.25
2019-01-31T05:54:07.532Z,1001.3
2019-01-31T05:58:06.704Z,1001.31
2019-01-31T06:02:06.905Z,1001.3
2019-01-31T06:06:07.395Z,1001.32
2019-01-31T06:09:07.467Z,1001.32
2019-01-31T06:13:06.363Z,1001.37
2019-01-31T06:17:07.721Z,1001.35
2019-01-31T06:21:06.958Z,1001.39
2019-01-31T06:24:06.675Z,1001.45
2019-01-31T06:28:06.624Z,1001.44
2019-01-31T06:32:07.244Z,1001.42
2019-01-31T06:36:07.419Z,1001.46
2019-01-31T06:40:07.318Z,1001.5
2019-01-31T06:43:07.020Z,1001.49
2019-01-31T06:47:07.627Z,1001.52
2019-01-31T06:51:06.408Z,1001.57
2019-01-31T06:54:07.730Z,1001.6
2019-01-31T06:58:07.229Z,1001.61
2019-01-31T07:01:07.520Z,1001.61
2019-01-31T07:02:07.492Z,1001.61
2019-01-31T07:05:07.184Z,1001.63
2019-01-31T07:09:06.371Z,1001.72
2019-01-31T07:12:06.097Z,1001.75
2019-01-31T07:16:07.906Z,1001.7
2019-01-31T07:19:07.578Z,1001.7
2019-01-31T07:23:06.777Z,1001.75
2019-01-31T07:26:07.402Z,1001.79
2019-01-31T07:29:07.328Z,1001.81
2019-01-31T07:33:06.629Z,1001.91
2019-01-31T07:36:07.315Z,1001.82
2019-01-31T07:39:07.278Z,1001.85
2019-01-31T07:43:06.122Z,1001.88
2019-01-31T07:46:06.589Z,1001.85
2019-01-31T07:49:06.233Z,1001.8
2019-01-31T07:53:07.742Z,1001.91
2019-01-31T07:56:07.454Z,1001.86
2019-01-31T07:59:07.116Z,1001.86
2019-01-31T08:03:06.668Z,1001.84
2019-01-31T08:06:07.351Z,1001.8
2019-01-31T08:09:07.328Z,1001.89
2019-01-31T08:12:06.931Z,1001.97
2019-01-31T08:15:08.522Z,1002
2019-01-31T08:19:06.406Z,1001.94
2019-01-31T08:22:06.144Z,1001.97
2019-01-31T08:25:06.782Z,1002.03
2019-01-31T08:28:06.560Z,1001.98
2019-01-31T08:31:06.868Z,1002.01
2019-01-31T08:35:07.343Z,1001.9
2019-01-31T08:38:07.055Z,1002.02
2019-01-31T08:41:07.296Z,1002.03
2019-01-31T08:44:06.912Z,1002.01
2019-01-31T08:48:06.981Z,1002
2019-01-31T08:51:06.623Z,1001.94
2019-01-31T08:54:07.342Z,1002
2019-01-31T08:57:07.039Z,1001.95
2019-01-31T09:00:09.052Z,1001.94
2019-01-31T09:01:05.950Z,1001.94
2019-01-31T09:04:06.602Z,1002.02
2019-01-31T09:07:06.282Z,1002.04
2019-01-31T09:10:06.482Z,1002.04
2019-01-31T09:13:06.186Z,1002.03
2019-01-31T09:16:06.856Z,1002.03
2019-01-31T09:17:07.884Z,1002.03
2019-01-31T09:20:07.613Z,1002.1
2019-01-31T09:23:07.259Z,1002.11
2019-01-31T09:26:06.895Z,1002.21
2019-01-31T09:29:07.579Z,1002.17
2019-01-31T09:32:07.450Z,1002.22
2019-01-31T09:35:07.093Z,1002.27
2019-01-31T09:38:07.809Z,1002.21
